createdAt,value
2018-10-21T00:01:44.901Z,12.00
2018-10-21T00:04:15.378Z,12.00
2018-10-21T00:06:44.409Z,11.90
2018-10-21T00:09:14.110Z,11.80
2018-10-21T00:11:43.634Z,11.80
2018-10-21T00:14:13.004Z,11.80
2018-10-21T00:16:42.481Z,11.70
2018-10-21T00:19:12.151Z,11.70
2018-10-21T00:21:41.857Z,11.60
2018-10-21T00:24:11.483Z,11.50
2018-10-21T00:26:41.614Z,11.60
2018-10-21T00:29:11.240Z,11.50
2018-10-21T00:31:40.454Z,11.50
2018-10-21T00:34:10.037Z,11.50
2018-10-21T00:36:39.139Z,11.60
2018-10-21T00:39:11.067Z,11.50
2018-10-21T00:41:39.953Z,11.40
2018-10-21T00:44:09.356Z,11.30
2018-10-21T00:46:39.469Z,11.30
2018-10-21T00:49:09.292Z,11.40
2018-10-21T00:51:38.692Z,11.40
2018-10-21T00:54:12.906Z,11.40
2018-10-21T00:56:42.323Z,11.30
2018-10-21T00:59:11.723Z,11.30
2018-10-21T01:01:40.929Z,11.30
2018-10-21T01:04:10.217Z,11.30
2018-10-21T01:06:38.757Z,11.30
2018-10-21T01:09:10.784Z,11.30
2018-10-21T01:11:41.078Z,11.30
2018-10-21T01:14:10.545Z,11.20
2018-10-21T01:16:39.231Z,11.10
2018-10-21T01:19:09.132Z,11.10
2018-10-21T01:21:38.491Z,11.10
2018-10-21T01:24:08.882Z,11.20
2018-10-21T01:26:38.588Z,11.20
2018-10-21T01:29:08.337Z,11.20
2018-10-21T01:31:37.229Z,11.30
2018-10-21T01:34:06.224Z,11.20
2018-10-21T01:36:35.946Z,11.10
2018-10-21T01:39:08.924Z,11.10
2018-10-21T01:41:38.596Z,11.00
2018-10-21T01:44:08.015Z,11.00
2018-10-21T01:46:37.950Z,11.00
2018-10-21T01:49:07.015Z,10.90
2018-10-21T01:51:36.778Z,11.00
2018-10-21T01:54:06.337Z,10.90
2018-10-21T01:56:34.983Z,11.00
2018-10-21T01:59:03.846Z,10.90
2018-10-21T02:01:33.073Z,10.90
2018-10-21T02:04:02.772Z,10.80
2018-10-21T02:06:32.045Z,10.80
2018-10-21T02:09:01.178Z,10.80
2018-10-21T02:11:30.424Z,10.70
2018-10-21T02:13:59.363Z,10.80
2018-10-21T02:16:28.448Z,10.80
2018-10-21T02:18:57.655Z,10.80
2018-10-21T02:21:27.113Z,10.70
2018-10-21T02:23:57.232Z,10.60
2018-10-21T02:26:26.846Z,10.60
2018-10-21T02:28:56.328Z,10.60
2018-10-21T02:31:26.192Z,10.60
2018-10-21T02:33:55.460Z,10.60
2018-10-21T02:36:24.600Z,10.60
2018-10-21T02:38:53.894Z,10.60
2018-10-21T02:41:37.005Z,10.50
2018-10-21T02:44:07.042Z,10.60
2018-10-21T02:46:37.156Z,10.50
2018-10-21T02:49:07.362Z,10.60
2018-10-21T02:51:37.354Z,10.50
2018-10-21T02:54:06.959Z,10.60
2018-10-21T02:56:36.889Z,10.60
2018-10-21T02:59:07.340Z,10.70
2018-10-21T03:01:36.018Z,10.50
2018-10-21T03:04:05.102Z,10.60
2018-10-21T03:06:33.696Z,10.50
2018-10-21T03:09:02.765Z,10.50
2018-10-21T03:11:32.369Z,10.40
2018-10-21T03:14:01.918Z,10.40
2018-10-21T03:16:30.915Z,10.40
2018-10-21T03:19:00.515Z,10.30
2018-10-21T03:21:30.184Z,10.20
2018-10-21T03:23:59.729Z,10.20
2018-10-21T03:26:28.736Z,10.20
2018-10-21T03:28:58.152Z,10.10
2018-10-21T03:31:27.700Z,10.10
2018-10-21T03:33:58.232Z,10.10
2018-10-21T03:36:28.268Z,10.20
2018-10-21T03:38:58.000Z,10.20
2018-10-21T03:41:26.772Z,10.20
2018-10-21T03:43:56.357Z,10.20
2018-10-21T03:46:26.194Z,10.20
2018-10-21T03:48:55.773Z,10.30
2018-10-21T03:51:25.128Z,10.30
2018-10-21T03:53:54.906Z,10.30
2018-10-21T03:56:24.554Z,10.10
2018-10-21T03:58:53.828Z,10.10
2018-10-21T04:01:23.744Z,10.10
2018-10-21T04:03:53.408Z,10.20
2018-10-21T04:06:23.484Z,10.20
2018-10-21T04:08:53.584Z,10.20
2018-10-21T04:11:23.156Z,10.10
2018-10-21T04:13:52.924Z,10.20
2018-10-21T04:16:22.587Z,10.20
2018-10-21T04:18:51.168Z,10.00
2018-10-21T04:21:21.124Z,10.10
2018-10-21T04:23:50.917Z,10.10
2018-10-21T04:26:20.080Z,10.10
2018-10-21T04:28:49.333Z,10.00
2018-10-21T04:31:19.518Z,10.20
2018-10-21T04:33:48.171Z,10.40
2018-10-21T04:36:19.888Z,10.40
2018-10-21T04:40:08.228Z,10.40
2018-10-21T04:42:38.568Z,10.40
2018-10-21T04:45:08.479Z,10.30
2018-10-21T04:47:38.472Z,10.30
2018-10-21T04:50:09.092Z,10.40
2018-10-21T04:52:39.104Z,10.50
2018-10-21T04:55:11.180Z,10.60
2018-10-21T04:57:41.619Z,10.50
2018-10-21T05:00:16.194Z,10.50
2018-10-21T05:02:45.369Z,10.40
2018-10-21T05:05:15.596Z,10.50
2018-10-21T05:07:44.592Z,10.50
2018-10-21T05:10:25.129Z,10.50
2018-10-21T05:12:54.858Z,10.40
2018-10-21T05:15:24.994Z,10.50
2018-10-21T05:17:54.832Z,10.50
2018-10-21T05:20:24.131Z,10.60
2018-10-21T05:22:52.978Z,10.50
2018-10-21T05:25:22.588Z,10.50
2018-10-21T05:27:52.682Z,10.50
2018-10-21T05:30:22.411Z,10.50
2018-10-21T05:32:52.643Z,10.50
2018-10-21T05:35:21.951Z,10.50
2018-10-21T05:37:51.568Z,10.50
2018-10-21T05:40:21.665Z,10.60
2018-10-21T05:42:51.283Z,10.60
2018-10-21T05:45:21.361Z,10.70
2018-10-21T05:47:50.373Z,10.80
2018-10-21T05:50:20.239Z,10.90
2018-10-21T05:52:50.232Z,10.90
2018-10-21T05:55:19.720Z,10.90
2018-10-21T05:57:49.256Z,10.90
2018-10-21T06:00:19.956Z,10.90
2018-10-21T06:02:48.547Z,10.90
2018-10-21T06:05:43.222Z,10.90
2018-10-21T06:08:12.947Z,10.90
2018-10-21T06:10:42.738Z,10.90
2018-10-21T06:13:12.378Z,11.00
2018-10-21T06:15:41.888Z,11.00
2018-10-21T06:18:26.208Z,11.00
2018-10-21T06:20:57.999Z,10.90
2018-10-21T06:23:27.713Z,11.00
2018-10-21T06:25:56.614Z,11.10
2018-10-21T06:28:26.100Z,11.10
2018-10-21T06:30:55.150Z,11.10
2018-10-21T06:33:25.009Z,11.00
2018-10-21T06:35:55.171Z,11.10
2018-10-21T06:38:25.137Z,11.20
2018-10-21T06:40:55.087Z,11.20
2018-10-21T06:43:24.764Z,11.20
2018-10-21T06:45:53.795Z,11.20
2018-10-21T06:48:22.642Z,11.30
2018-10-21T06:50:51.644Z,11.40
2018-10-21T06:53:20.722Z,11.50
2018-10-21T06:55:50.381Z,11.50
2018-10-21T06:58:18.999Z,11.40
2018-10-21T07:00:48.237Z,11.40
2018-10-21T07:03:18.146Z,11.40
2018-10-21T07:06:27.045Z,11.50
2018-10-21T07:08:58.530Z,11.50
2018-10-21T07:11:28.584Z,11.40
2018-10-21T07:13:58.258Z,11.40
2018-10-21T07:16:27.281Z,11.50
2018-10-21T07:18:56.200Z,11.60
2018-10-21T07:21:25.888Z,11.60
2018-10-21T07:23:55.548Z,11.60
2018-10-21T07:26:24.598Z,11.60
2018-10-21T07:28:53.414Z,11.60
2018-10-21T07:31:22.841Z,11.70
2018-10-21T07:33:52.524Z,11.80
2018-10-21T07:36:21.870Z,11.70
2018-10-21T07:39:05.649Z,11.70
2018-10-21T07:41:34.400Z,11.80
2018-10-21T07:44:03.592Z,11.80
2018-10-21T07:46:32.814Z,11.90
2018-10-21T07:49:02.193Z,11.90
2018-10-21T07:51:31.173Z,11.90
2018-10-21T07:54:00.481Z,12.00
2018-10-21T07:56:30.332Z,12.10
2018-10-21T07:58:59.681Z,12.00
2018-10-21T08:01:28.889Z,12.10
2018-10-21T08:03:58.341Z,12.20
2018-10-21T08:06:38.904Z,12.20
2018-10-21T08:09:10.202Z,12.20
2018-10-21T08:11:40.175Z,12.20
2018-10-21T08:14:08.805Z,12.30
2018-10-21T08:16:38.148Z,12.30
2018-10-21T08:19:07.390Z,12.40
2018-10-21T08:21:36.688Z,12.60
2018-10-21T08:24:05.703Z,12.60
2018-10-21T08:26:35.417Z,12.80
2018-10-21T08:29:04.744Z,13.00
2018-10-21T08:31:33.740Z,13.10
2018-10-21T08:34:04.268Z,13.30
2018-10-21T08:36:33.807Z,13.30
2018-10-21T08:39:04.551Z,13.40
2018-10-21T08:41:33.637Z,13.40
2018-10-21T08:44:04.187Z,13.70
2018-10-21T08:46:33.905Z,13.90
2018-10-21T08:49:03.009Z,14.00
2018-10-21T08:51:32.736Z,14.10
2018-10-21T08:54:02.005Z,14.00
2018-10-21T08:56:31.638Z,14.00
2018-10-21T08:59:00.940Z,14.00
2018-10-21T09:01:30.256Z,14.10
2018-10-21T09:03:59.543Z,14.20
2018-10-21T09:06:29.382Z,14.20
2018-10-21T09:08:58.616Z,14.20
2018-10-21T09:11:27.564Z,14.30
2018-10-21T09:13:57.362Z,14.30
2018-10-21T09:16:25.951Z,14.40
2018-10-21T09:18:55.457Z,14.50
2018-10-21T09:21:24.713Z,14.50
2018-10-21T09:23:54.963Z,14.60
2018-10-21T09:26:24.455Z,14.60
2018-10-21T09:28:54.975Z,14.70
2018-10-21T09:31:24.954Z,14.80
2018-10-21T09:33:55.584Z,14.90
2018-10-21T09:36:24.855Z,14.90
2018-10-21T09:38:54.031Z,15.00
2018-10-21T09:41:23.815Z,15.00
2018-10-21T09:43:53.510Z,15.10
2018-10-21T09:46:22.869Z,15.10
2018-10-21T09:48:52.296Z,15.20
2018-10-21T09:51:22.244Z,15.30
2018-10-21T09:53:51.739Z,15.30
2018-10-21T09:56:21.064Z,15.30
2018-10-21T09:58:50.759Z,15.30
2018-10-21T10:01:25.209Z,15.50
2018-10-21T10:03:54.488Z,15.50
2018-10-21T10:06:23.989Z,15.50
2018-10-21T10:08:52.816Z,15.50
2018-10-21T10:11:21.768Z,15.60
2018-10-21T10:13:51.318Z,15.60
2018-10-21T10:16:21.541Z,15.80
2018-10-21T10:18:51.133Z,15.70
2018-10-21T10:21:21.348Z,15.80
2018-10-21T10:23:50.953Z,15.80
2018-10-21T10:26:20.070Z,15.90
2018-10-21T10:28:50.632Z,15.90
2018-10-21T10:31:20.252Z,16.00
2018-10-21T10:33:49.593Z,15.90
2018-10-21T10:36:19.271Z,16.00
2018-10-21T10:38:48.345Z,16.00
2018-10-21T10:41:17.437Z,16.00
2018-10-21T10:43:47.191Z,16.00
2018-10-21T10:46:17.376Z,16.10
2018-10-21T10:48:47.244Z,16.10
2018-10-21T10:51:17.402Z,16.20
2018-10-21T10:53:47.765Z,16.20
2018-10-21T10:56:17.531Z,16.20
2018-10-21T10:58:48.108Z,16.30
2018-10-21T11:01:17.987Z,16.30
2018-10-21T11:03:47.714Z,16.40
2018-10-21T11:06:17.264Z,16.40
2018-10-21T11:08:47.018Z,16.40
2018-10-21T11:11:16.259Z,16.40
2018-10-21T11:13:45.933Z,16.40
2018-10-21T11:16:15.321Z,16.40
2018-10-21T11:18:45.305Z,16.40
2018-10-21T11:21:14.731Z,16.50
2018-10-21T11:23:43.996Z,16.60
2018-10-21T11:26:13.346Z,16.60
2018-10-21T11:28:42.296Z,16.70
2018-10-21T11:31:12.092Z,16.70
2018-10-21T11:33:41.817Z,16.70
2018-10-21T11:36:12.073Z,16.70
2018-10-21T11:38:40.944Z,16.70
2018-10-21T11:41:10.180Z,16.70
2018-10-21T11:43:39.658Z,16.70
2018-10-21T11:46:09.742Z,16.80
2018-10-21T11:48:40.412Z,16.80
2018-10-21T11:51:09.964Z,16.90
2018-10-21T11:53:39.783Z,16.90
2018-10-21T11:56:10.236Z,16.80
2018-10-21T11:58:39.725Z,16.80
2018-10-21T12:01:08.816Z,16.80
2018-10-21T12:03:38.053Z,16.80
2018-10-21T12:06:07.500Z,16.80
2018-10-21T12:08:36.508Z,17.00
2018-10-21T12:11:05.961Z,17.00
2018-10-21T12:13:35.122Z,17.00
2018-10-21T12:16:05.186Z,17.10
2018-10-21T12:18:34.528Z,17.00
2018-10-21T12:21:04.420Z,17.00
2018-10-21T12:23:33.710Z,17.00
2018-10-21T12:26:02.887Z,17.00
2018-10-21T12:28:31.568Z,17.00
2018-10-21T12:31:01.428Z,17.10
2018-10-21T12:33:33.980Z,17.10
2018-10-21T12:36:04.018Z,17.10
2018-10-21T12:38:33.825Z,17.10
2018-10-21T12:41:03.833Z,17.10
2018-10-21T12:43:33.728Z,17.10
2018-10-21T12:46:05.099Z,17.10
2018-10-21T12:48:34.705Z,17.10
2018-10-21T12:51:05.130Z,17.20
2018-10-21T12:53:34.990Z,17.20
2018-10-21T12:56:05.369Z,17.20
2018-10-21T12:58:34.373Z,17.20
2018-10-21T13:01:04.406Z,17.20
2018-10-21T13:03:33.560Z,17.20
2018-10-21T13:06:04.315Z,17.20
2018-10-21T13:08:33.699Z,17.20
2018-10-21T13:11:03.366Z,17.20
2018-10-21T13:13:32.063Z,17.20
2018-10-21T13:16:00.749Z,17.20
2018-10-21T13:18:30.945Z,17.20
2018-10-21T13:21:01.592Z,17.30
2018-10-21T13:23:30.884Z,17.30
2018-10-21T13:26:00.573Z,17.20
2018-10-21T13:28:30.689Z,17.20
2018-10-21T13:31:00.806Z,17.20
2018-10-21T13:33:30.096Z,17.30
2018-10-21T13:36:00.223Z,17.30
2018-10-21T13:38:33.798Z,17.30
2018-10-21T13:41:04.352Z,17.30
2018-10-21T13:43:34.166Z,17.30
2018-10-21T13:46:03.859Z,17.40
2018-10-21T13:48:33.141Z,17.40
2018-10-21T13:51:02.382Z,17.30
2018-10-21T13:53:32.593Z,17.30
2018-10-21T13:56:02.330Z,17.30
2018-10-21T13:58:31.907Z,17.30
2018-10-21T14:01:01.834Z,17.40
2018-10-21T14:03:31.246Z,17.30
2018-10-21T14:06:00.551Z,17.30
2018-10-21T14:08:30.434Z,17.30
2018-10-21T14:10:59.508Z,17.30
2018-10-21T14:13:29.068Z,17.30
2018-10-21T14:15:59.875Z,17.40
2018-10-21T14:18:29.220Z,17.40
2018-10-21T14:20:59.743Z,17.30
2018-10-21T14:23:29.053Z,17.30
2018-10-21T14:25:58.425Z,17.30
2018-10-21T14:28:27.567Z,17.40
2018-10-21T14:30:56.939Z,17.40
2018-10-21T14:33:25.896Z,17.30
2018-10-21T14:35:55.843Z,17.30
2018-10-21T14:38:25.704Z,17.40
2018-10-21T14:40:55.950Z,17.30
2018-10-21T14:43:26.778Z,17.30
2018-10-21T14:45:56.205Z,17.30
2018-10-21T14:48:25.967Z,17.30
2018-10-21T14:50:55.191Z,17.20
2018-10-21T14:53:24.532Z,17.20
2018-10-21T14:55:54.346Z,17.20
2018-10-21T14:58:23.174Z,17.20
2018-10-21T15:00:52.687Z,17.10
2018-10-21T15:03:22.283Z,17.10
2018-10-21T15:05:51.570Z,17.20
2018-10-21T15:08:20.753Z,17.20
2018-10-21T15:10:50.744Z,17.20
2018-10-21T15:13:19.842Z,17.20
2018-10-21T15:15:50.154Z,17.20
2018-10-21T15:18:19.711Z,17.20
2018-10-21T15:20:49.999Z,17.10
2018-10-21T15:23:19.634Z,17.10
2018-10-21T15:25:49.843Z,17.10
2018-10-21T15:28:19.848Z,17.10
2018-10-21T15:30:49.621Z,17.10
2018-10-21T15:33:19.787Z,17.10
2018-10-21T15:35:49.905Z,17.10
2018-10-21T15:38:19.393Z,17.10
2018-10-21T15:40:49.619Z,17.10
2018-10-21T15:43:20.522Z,17.10
2018-10-21T15:45:50.786Z,17.00
2018-10-21T15:48:20.279Z,17.00
2018-10-21T15:50:50.321Z,17.00
2018-10-21T15:53:20.704Z,16.90
2018-10-21T15:55:49.539Z,16.90
2018-10-21T15:58:19.358Z,16.90
2018-10-21T16:00:49.236Z,16.90
2018-10-21T16:03:19.572Z,16.90
2018-10-21T16:05:48.777Z,16.90
2018-10-21T16:08:18.726Z,16.90
2018-10-21T16:10:48.288Z,16.90
2018-10-21T16:13:18.020Z,16.80
2018-10-21T16:15:48.643Z,16.70
2018-10-21T16:18:18.653Z,16.70
2018-10-21T16:20:48.267Z,16.70
2018-10-21T16:23:18.478Z,16.70
2018-10-21T16:25:48.024Z,16.60
2018-10-21T16:28:17.711Z,16.60
2018-10-21T16:30:48.131Z,16.50
2018-10-21T16:33:16.814Z,16.50
2018-10-21T16:35:46.376Z,16.50
2018-10-21T16:38:15.471Z,16.40
2018-10-21T16:40:44.756Z,16.40
2018-10-21T16:43:14.230Z,16.40
2018-10-21T16:45:43.721Z,16.30
2018-10-21T16:48:13.057Z,16.20
2018-10-21T16:50:42.317Z,16.20
2018-10-21T16:53:11.902Z,16.10
2018-10-21T16:55:41.400Z,16.00
2018-10-21T16:58:10.837Z,16.00
2018-10-21T17:00:40.083Z,15.80
2018-10-21T17:03:10.375Z,15.80
2018-10-21T17:05:40.865Z,15.70
2018-10-21T17:08:10.053Z,15.70
2018-10-21T17:10:39.356Z,15.60
2018-10-21T17:13:08.569Z,15.50
2018-10-21T17:15:38.088Z,15.50
2018-10-21T17:18:06.966Z,15.50
2018-10-21T17:20:36.510Z,15.30
2018-10-21T17:23:06.337Z,15.20
2018-10-21T17:25:36.020Z,15.10
2018-10-21T17:28:05.845Z,14.90
2018-10-21T17:30:34.833Z,14.90
2018-10-21T17:33:03.962Z,14.90
2018-10-21T17:35:33.392Z,14.80
2018-10-21T17:38:03.920Z,14.80
2018-10-21T17:40:34.500Z,14.80
2018-10-21T17:43:04.753Z,14.80
2018-10-21T17:45:34.863Z,14.80
2018-10-21T17:48:04.747Z,14.70
2018-10-21T17:50:34.356Z,14.70
2018-10-21T17:53:04.967Z,14.80
2018-10-21T17:55:33.840Z,14.70
2018-10-21T17:58:03.220Z,14.60
2018-10-21T18:00:33.179Z,14.60
2018-10-21T18:03:02.919Z,14.50
2018-10-21T18:05:32.293Z,14.40
2018-10-21T18:08:02.343Z,14.40
2018-10-21T18:10:31.491Z,14.40
2018-10-21T18:13:01.833Z,14.40
2018-10-21T18:15:31.151Z,14.30
2018-10-21T18:18:16.101Z,14.20
2018-10-21T18:20:45.906Z,14.20
2018-10-21T18:23:15.737Z,14.00
2018-10-21T18:25:45.182Z,14.00
2018-10-21T18:28:15.869Z,13.90
2018-10-21T18:30:45.097Z,13.90
2018-10-21T18:33:14.368Z,13.80
2018-10-21T18:35:44.534Z,13.70
2018-10-21T18:38:14.014Z,13.70
2018-10-21T18:40:44.557Z,13.70
2018-10-21T18:43:13.965Z,13.70
2018-10-21T18:45:44.718Z,13.60
2018-10-21T18:48:15.601Z,13.50
2018-10-21T18:50:46.463Z,13.50
2018-10-21T18:53:16.794Z,13.50
2018-10-21T18:55:46.928Z,13.50
2018-10-21T18:58:16.826Z,13.40
2018-10-21T19:00:47.150Z,13.30
2018-10-21T19:03:17.580Z,13.20
2018-10-21T19:05:47.740Z,13.20
2018-10-21T19:08:19.150Z,13.10
2018-10-21T19:10:48.724Z,13.10
2018-10-21T19:13:19.053Z,13.10
2018-10-21T19:15:49.529Z,13.00
2018-10-21T19:18:19.705Z,12.90
2018-10-21T19:20:50.591Z,12.80
2018-10-21T19:23:20.383Z,12.80
2018-10-21T19:25:49.849Z,12.70
2018-10-21T19:28:22.276Z,12.60
2018-10-21T19:30:53.340Z,12.70
2018-10-21T19:33:22.820Z,12.70
2018-10-21T19:35:52.857Z,12.70
2018-10-21T19:38:22.419Z,12.60
2018-10-21T19:40:52.473Z,12.60
2018-10-21T19:43:23.100Z,12.50
2018-10-21T19:45:58.282Z,12.50
2018-10-21T19:48:29.326Z,12.40
2018-10-21T19:51:01.622Z,12.40
2018-10-21T19:53:32.800Z,12.30
2018-10-21T19:56:02.860Z,12.30
2018-10-21T19:58:33.310Z,12.30
2018-10-21T20:01:03.365Z,12.40
2018-10-21T20:03:34.434Z,12.40
2018-10-21T20:06:05.595Z,12.30
2018-10-21T20:08:35.396Z,12.20
2018-10-21T20:11:04.857Z,12.10
2018-10-21T20:13:34.628Z,12.10
2018-10-21T20:16:05.077Z,12.10
2018-10-21T20:18:35.070Z,12.00
2018-10-21T20:21:05.602Z,12.00
2018-10-21T20:23:35.836Z,12.00
2018-10-21T20:26:06.964Z,11.90
2018-10-21T20:28:37.059Z,11.90
2018-10-21T20:31:06.560Z,12.00
2018-10-21T20:33:36.222Z,12.00
2018-10-21T20:36:06.319Z,11.80
2018-10-21T20:38:37.773Z,11.80
2018-10-21T20:41:07.377Z,11.80
2018-10-21T20:43:37.120Z,11.90
2018-10-21T20:46:07.051Z,11.90
2018-10-21T20:48:38.254Z,11.80
2018-10-21T20:51:08.898Z,11.80
2018-10-21T20:53:38.949Z,11.80
2018-10-21T20:56:08.326Z,11.70
2018-10-21T20:58:37.798Z,11.70
2018-10-21T21:01:07.733Z,11.70
2018-10-21T21:03:37.664Z,11.60
2018-10-21T21:06:08.021Z,11.70
2018-10-21T21:08:37.937Z,11.70
2018-10-21T21:11:07.610Z,11.60
2018-10-21T21:13:37.323Z,11.50
2018-10-21T21:16:07.429Z,11.40
2018-10-21T21:18:36.882Z,11.40
2018-10-21T21:21:06.186Z,11.50
2018-10-21T21:23:36.984Z,11.50
2018-10-21T21:26:06.531Z,11.40
2018-10-21T21:28:35.957Z,11.50
2018-10-21T21:31:05.894Z,11.40
2018-10-21T21:33:35.012Z,11.30
2018-10-21T21:36:05.000Z,11.20
2018-10-21T21:38:34.842Z,11.20
2018-10-21T21:41:04.897Z,11.20
2018-10-21T21:43:34.866Z,11.10
2018-10-21T21:46:04.547Z,11.20
2018-10-21T21:48:34.788Z,11.20
2018-10-21T21:51:04.993Z,11.20
2018-10-21T21:53:34.839Z,11.10
2018-10-21T21:56:05.059Z,11.00
2018-10-21T21:58:34.949Z,11.00
2018-10-21T22:01:05.013Z,10.90
2018-10-21T22:03:33.636Z,10.90
2018-10-21T22:06:03.861Z,10.70
2018-10-21T22:08:33.142Z,10.70
2018-10-21T22:11:03.060Z,10.70
2018-10-21T22:13:34.577Z,10.60
2018-10-21T22:16:04.360Z,10.60
2018-10-21T22:18:33.848Z,10.60
2018-10-21T22:21:03.632Z,10.60
2018-10-21T22:23:33.025Z,10.70
2018-10-21T22:26:03.095Z,10.60
2018-10-21T22:28:33.670Z,10.70
2018-10-21T22:31:03.256Z,10.80
2018-10-21T22:33:34.398Z,10.80
2018-10-21T22:36:04.674Z,10.80
2018-10-21T22:38:34.580Z,10.80
2018-10-21T22:41:04.361Z,10.70
2018-10-21T22:43:34.039Z,10.80
2018-10-21T22:46:03.880Z,10.80
2018-10-21T22:48:33.666Z,10.80
2018-10-21T22:51:04.425Z,10.80
2018-10-21T22:53:34.687Z,10.80
2018-10-21T22:56:05.120Z,10.80
2018-10-21T22:58:35.545Z,10.70
2018-10-21T23:01:05.394Z,10.50
2018-10-21T23:03:34.856Z,10.70
2018-10-21T23:06:05.606Z,10.80
2018-10-21T23:08:35.508Z,10.60
2018-10-21T23:11:06.283Z,10.60
2018-10-21T23:13:36.016Z,10.50
2018-10-21T23:16:06.048Z,10.60
2018-10-21T23:18:35.799Z,10.50
2018-10-21T23:21:06.245Z,10.40
2018-10-21T23:23:36.469Z,10.40
2018-10-21T23:26:06.007Z,10.20
2018-10-21T23:28:36.338Z,10.20
2018-10-21T23:31:06.038Z,10.20
2018-10-21T23:33:36.253Z,10.10
2018-10-21T23:36:05.997Z,10.20
2018-10-21T23:38:35.373Z,10.10
2018-10-21T23:41:05.191Z,10.00
2018-10-21T23:43:35.487Z,9.90
2018-10-21T23:46:05.416Z,9.90
2018-10-21T23:48:35.117Z,10.10
2018-10-21T23:51:05.253Z,9.90
2018-10-21T23:53:35.180Z,9.80
2018-10-21T23:56:05.295Z,9.90
2018-10-21T23:58:35.097Z,9.90
